Time;durP1;ratioP1;P1;durP2;ratioP2;P2;SDS_P1;SDS_P2;PMS_P1;PMS_P2;Temp;Humidity;BMP_temperature;BMP_pressure;BME280_temperature;BME280_humidity;BME280_pressure;Samples;Min_cycle;Max_cycle;Signal;HPM_P1;HPM_P2
2022/11/03 00:00:34;;;;;;;;;;;;;;;7.94;70.70;99579.72;5271627;28;19927;-71
2022/11/03 00:03:24;;;;;;;;;;;;;;;7.84;70.67;99586.63;5262134;28;19920;-73
2022/11/03 00:06:14;;;;;;;;;;;;;;;7.81;71.05;99581.56;5269139;28;20010;-71
2022/11/03 00:09:06;;;;;;;;;;;;;;;7.79;70.89;99580.88;5253662;28;20336;-72
2022/11/03 00:11:56;;;;;;;;;;;;;;;7.74;70.05;99580.34;5272653;28;19950;-72
2022/11/03 00:14:46;;;;;;;;;;;;;;;7.72;70.40;99571.72;5268974;28;20432;-72
2022/11/03 00:17:36;;;;;;;;;;;;;;;7.63;70.66;99569.72;5269068;28;19927;-71
2022/11/03 00:20:26;;;;;;;;;;;;;;;7.63;70.27;99575.84;5260227;28;20003;-73
2022/11/03 00:23:15;;;;;;;;;;;;;;;7.52;70.56;99570.50;5288447;28;20297;-73
2022/11/03 00:26:08;;;;;;;;;;;;;;;7.51;70.38;99563.53;5272339;28;19927;-72
2022/11/03 00:28:59;;;;;;;;;;;;;;;7.57;70.42;99552.53;5253616;28;20064;-72
2022/11/03 00:31:49;;;;;;;;;;;;;;;7.55;70.46;99551.81;5281528;28;20076;-71
2022/11/03 00:34:39;;;;;;;;;;;;;;;7.54;70.79;99553.59;5274558;28;20014;-70
2022/11/03 00:37:29;;;;;;;;;;;;;;;7.56;71.13;99545.59;5274385;28;20019;-73
2022/11/03 00:40:19;;;;;;;;;;;;;;;7.99;73.61;99535.34;5281883;28;20020;-71
2022/11/03 00:43:09;;;;;;;;;;;;;;;8.34;73.75;99541.56;5287146;28;19927;-72
2022/11/03 00:45:59;;;;;;;;;;;;;;;8.57;72.94;99529.28;5289192;28;20470;-72
2022/11/03 00:48:49;;;;;;;;;;;;;;;8.74;72.97;99520.91;5271269;28;19926;-72
2022/11/03 00:51:39;;;;;;;;;;;;;;;8.59;72.35;99527.38;5258686;28;20011;-72
2022/11/03 00:54:29;;;;;;;;;;;;;;;8.38;71.73;99525.44;5265867;28;20442;-72
2022/11/03 00:57:19;;;;;;;;;;;;;;;8.12;71.06;99522.06;5267740;28;20286;-72
2022/11/03 01:00:10;;;;;;;;;;;;;;;8.10;71.98;99521.34;5275569;28;19920;-73
2022/11/03 01:02:59;;;;;;;;;;;;;;;7.85;71.87;99527.63;5285219;28;19965;-72
2022/11/03 01:08:58;;;;;;;;;;;;;;;7.79;70.96;99522.78;5283542;28;20106;-71
2022/11/03 01:12:06;;;;;;;;;;;;;;;7.76;70.86;99523.84;5279493;28;19930;-72
2022/11/03 01:14:56;;;;;;;;;;;;;;;7.68;70.89;99525.34;5288566;28;19930;-71
2022/11/03 01:17:46;;;;;;;;;;;;;;;7.60;70.62;99514.53;5265542;28;20471;-71
2022/11/03 01:20:36;;;;;;;;;;;;;;;7.68;71.21;99514.81;5258166;28;19973;-72
2022/11/03 01:23:26;;;;;;;;;;;;;;;7.71;70.97;99507.50;5257593;28;20289;-73
2022/11/03 01:26:16;;;;;;;;;;;;;;;7.56;70.91;99508.63;5267472;28;20377;-72
2022/11/03 01:29:06;;;;;;;;;;;;;;;7.50;70.60;99501.16;5268122;28;19920;-72
2022/11/03 01:31:56;;;;;;;;;;;;;;;7.42;70.73;99503.53;5279546;28;20020;-72
2022/11/03 01:34:46;;;;;;;;;;;;;;;7.52;71.10;99494.00;5288310;28;20297;-73
2022/11/03 01:37:36;;;;;;;;;;;;;;;7.55;70.76;99483.22;5288274;28;19926;-72
2022/11/03 01:40:26;;;;;;;;;;;;;;;7.40;70.44;99473.78;5262103;28;19927;-71
2022/11/03 01:43:17;;;;;;;;;;;;;;;7.30;71.55;99471.78;5286992;28;19927;-72
2022/11/03 01:46:10;;;;;;;;;;;;;;;7.43;71.23;99473.56;5288230;28;19927;-72
2022/11/03 01:49:05;;;;;;;;;;;;;;;7.36;71.21;99462.59;5267204;28;19980;-73
2022/11/03 01:51:58;;;;;;;;;;;;;;;7.18;71.21;99458.66;5279279;28;20041;-72
2022/11/03 01:54:52;;;;;;;;;;;;;;;7.14;71.05;99451.91;5288203;28;20072;-72
2022/11/03 01:57:53;;;;;;;;;;;;;;;7.03;70.90;99460.59;5272510;28;19949;-72
2022/11/03 02:00:45;;;;;;;;;;;;;;;6.88;70.64;99462.53;5260430;28;20014;-73
2022/11/03 02:03:41;;;;;;;;;;;;;;;6.85;70.80;99460.09;5279888;28;19927;-72
2022/11/03 02:06:31;;;;;;;;;;;;;;;6.85;71.23;99461.91;5272354;28;19972;-73
2022/11/03 02:09:21;;;;;;;;;;;;;;;6.88;70.60;99465.16;5284733;28;20410;-72
2022/11/03 02:12:12;;;;;;;;;;;;;;;6.87;71.26;99460.84;5278683;28;20020;-72
2022/11/03 02:15:04;;;;;;;;;;;;;;;6.82;70.62;99463.81;5287731;28;19927;-72
2022/11/03 02:17:55;;;;;;;;;;;;;;;6.86;71.48;99459.19;5263176;28;20515;-73
2022/11/03 02:20:48;;;;;;;;;;;;;;;6.80;71.37;99449.06;5272368;28;19943;-73
2022/11/03 02:23:42;;;;;;;;;;;;;;;6.91;71.74;99449.13;5273415;28;19931;-72
2022/11/03 02:26:32;;;;;;;;;;;;;;;7.01;71.08;99444.88;5265209;28;20388;-73
2022/11/03 02:29:22;;;;;;;;;;;;;;;6.94;71.42;99437.53;5268416;28;19927;-73
2022/11/03 02:32:22;;;;;;;;;;;;;;;6.93;71.26;99434.06;5278368;28;19972;-72
2022/11/03 02:35:27;;;;;;;;;;;;;;;6.87;71.08;99429.22;5272078;28;20401;-73
2022/11/03 02:38:19;;;;;;;;;;;;;;;6.86;71.16;99430.19;5271740;28;19930;-72
2022/11/03 02:41:11;;;;;;;;;;;;;;;6.79;71.70;99431.56;5275280;28;20404;-72
2022/11/03 02:44:03;;;;;;;;;;;;;;;6.87;70.41;99429.22;5287040;28;19934;-72
2022/11/03 02:46:55;;;;;;;;;;;;;;;6.72;71.39;99422.41;5287030;28;20286;-74
2022/11/03 02:49:49;;;;;;;;;;;;;;;6.62;70.98;99421.38;5277861;28;19927;-71
2022/11/03 02:52:45;;;;;;;;;;;;;;;6.77;70.93;99413.22;5279301;28;19926;-73
2022/11/03 02:55:37;;;;;;;;;;;;;;;6.73;71.00;99413.56;5287078;28;19926;-72
2022/11/03 02:58:37;;;;;;;;;;;;;;;6.59;70.75;99402.22;5269333;28;19927;-72
2022/11/03 03:01:47;;;;;;;;;;;;;;;6.56;71.95;99399.78;5259442;28;19982;-71
2022/11/03 03:04:37;;;;;;;;;;;;;;;6.44;71.36;99398.00;5286567;28;19977;-73
2022/11/03 03:07:33;;;;;;;;;;;;;;;6.48;71.16;99390.72;5286725;28;20192;-72
2022/11/03 03:10:25;;;;;;;;;;;;;;;6.60;71.35;99379.34;5275342;28;19926;-72
2022/11/03 03:13:18;;;;;;;;;;;;;;;6.65;71.57;99368.44;5263379;28;19927;-72
2022/11/03 03:16:15;;;;;;;;;;;;;;;6.62;70.98;99371.31;5252969;28;19924;-73
2022/11/03 03:19:21;;;;;;;;;;;;;;;6.47;71.49;99362.72;5265439;28;19926;-72
2022/11/03 03:22:17;;;;;;;;;;;;;;;6.29;71.60;99356.94;5271431;28;19920;-72
2022/11/03 03:25:12;;;;;;;;;;;;;;;6.38;71.22;99361.56;5265692;28;20388;-72
2022/11/03 03:28:23;;;;;;;;;;;;;;;6.32;71.31;99354.09;5234038;28;19947;-72
2022/11/03 03:31:13;;;;;;;;;;;;;;;6.30;71.05;99353.38;5273727;28;19930;-73
2022/11/03 03:34:04;;;;;;;;;;;;;;;6.28;71.58;99352.63;5250187;28;19932;-72
2022/11/03 03:37:14;;;;;;;;;;;;;;;6.39;71.76;99341.31;5264871;28;19986;-72
2022/11/03 03:40:07;;;;;;;;;;;;;;;6.41;71.82;99342.91;5257188;28;19923;-71
2022/11/03 03:42:58;;;;;;;;;;;;;;;6.41;71.82;99337.63;5267084;28;20014;-72
2022/11/03 03:45:50;;;;;;;;;;;;;;;6.30;71.79;99335.78;5286426;28;19981;-73
2022/11/03 03:48:41;;;;;;;;;;;;;;;6.39;71.45;99333.44;5282311;28;20491;-72
2022/11/03 03:51:32;;;;;;;;;;;;;;;6.29;71.73;99323.56;5271270;28;20381;-72
2022/11/03 03:54:22;;;;;;;;;;;;;;;6.32;71.54;99317.22;5276997;28;19919;-74
2022/11/03 03:57:17;;;;;;;;;;;;;;;6.27;70.89;99314.09;5285749;28;19931;-72
2022/11/03 04:00:08;;;;;;;;;;;;;;;6.15;70.61;99314.94;5263398;28;20439;-72
2022/11/03 04:03:01;;;;;;;;;;;;;;;6.11;71.23;99315.16;5267861;28;20409;-72
2022/11/03 04:05:52;;;;;;;;;;;;;;;6.18;71.33;99305.03;5285791;28;20050;-72
2022/11/03 04:08:42;;;;;;;;;;;;;;;6.23;71.64;99291.56;5252682;28;19924;-72
2022/11/03 04:24:08;;;;;;;;;;;;;;;6.02;71.80;99267.56;5228637;28;20309;-73
2022/11/03 04:27:01;;;;;;;;;;;;;;;6.09;72.27;99266.19;5243568;28;19920;-73
2022/11/03 04:29:51;;;;;;;;;;;;;;;6.10;72.13;99270.53;5254022;28;19927;-72
2022/11/03 04:32:45;;;;;;;;;;;;;;;6.13;71.57;99265.03;5248981;28;19968;-72
2022/11/03 04:35:35;;;;;;;;;;;;;;;6.11;71.93;99257.22;5256180;28;20369;-72
2022/11/03 04:38:26;;;;;;;;;;;;;;;6.03;72.16;99262.22;5274051;28;19920;-71
2022/11/03 04:41:16;;;;;;;;;;;;;;;5.99;71.48;99244.94;5276120;28;19920;-71
2022/11/03 04:44:08;;;;;;;;;;;;;;;6.01;71.59;99258.00;5244147;28;20366;-72
2022/11/03 04:46:58;;;;;;;;;;;;;;;5.97;71.45;99241.59;5243484;28;19920;-72
2022/11/03 04:49:48;;;;;;;;;;;;;;;5.99;71.06;99241.47;5260419;28;20297;-73
2022/11/03 04:52:38;;;;;;;;;;;;;;;5.92;71.62;99243.66;5281527;28;19964;-71
2022/11/03 04:55:28;;;;;;;;;;;;;;;5.94;71.90;99240.97;5289691;28;20002;-72
2022/11/03 04:58:30;;;;;;;;;;;;;;;5.92;71.63;99238.41;5287788;28;20044;-72
2022/11/03 05:01:21;;;;;;;;;;;;;;;5.92;71.24;99229.66;5279152;28;19927;-72
2022/11/03 05:04:15;;;;;;;;;;;;;;;5.91;71.54;99222.72;5289159;28;20014;-73
2022/11/03 05:07:13;;;;;;;;;;;;;;;5.80;71.81;99231.38;5289057;28;19934;-72
2022/11/03 05:10:03;;;;;;;;;;;;;;;5.73;72.12;99233.59;5281353;28;19958;-72
2022/11/03 05:12:54;;;;;;;;;;;;;;;5.78;71.55;99228.00;5254574;28;19942;-73
2022/11/03 05:15:44;;;;;;;;;;;;;;;5.80;70.62;99223.50;5273415;28;19927;-72
2022/11/03 05:18:36;;;;;;;;;;;;;;;5.91;71.12;99223.56;5257279;28;19927;-71
2022/11/03 05:21:26;;;;;;;;;;;;;;;5.93;71.90;99221.72;5270980;28;20021;-71
2022/11/03 05:24:18;;;;;;;;;;;;;;;6.00;71.86;99220.31;5279796;28;19920;-72
2022/11/03 05:27:15;;;;;;;;;;;;;;;6.02;71.75;99220.19;5288557;28;19953;-72
2022/11/03 05:30:05;;;;;;;;;;;;;;;5.89;71.98;99212.28;5265799;28;19930;-72
2022/11/03 05:32:55;;;;;;;;;;;;;;;5.94;71.98;99206.75;5284324;28;19927;-73
2022/11/03 05:35:45;;;;;;;;;;;;;;;5.94;72.16;99212.03;5288428;28;19998;-72
2022/11/03 05:38:35;;;;;;;;;;;;;;;5.98;72.32;99189.78;5285566;28;20388;-74
2022/11/03 05:41:26;;;;;;;;;;;;;;;6.04;72.63;99187.56;5275481;28;19969;-72
2022/11/03 05:44:36;;;;;;;;;;;;;;;6.00;72.30;99178.19;5267216;28;19924;-73
2022/11/03 05:47:31;;;;;;;;;;;;;;;6.03;72.17;99175.34;5266861;28;20328;-72
2022/11/03 05:50:23;;;;;;;;;;;;;;;6.04;72.61;99171.75;5272442;28;19919;-72
2022/11/03 05:53:27;;;;;;;;;;;;;;;5.92;72.65;99164.69;5252143;28;19920;-72
2022/11/03 05:56:18;;;;;;;;;;;;;;;5.86;71.98;99165.13;5251380;28;20041;-72
2022/11/03 05:59:10;;;;;;;;;;;;;;;5.87;72.12;99169.47;5234463;22;19952;-84
2022/11/03 06:02:00;;;;;;;;;;;;;;;5.84;71.42;99161.78;5196095;28;19937;-82
2022/11/03 06:04:51;;;;;;;;;;;;;;;5.89;72.43;99164.91;5175467;28;19956;-82
2022/11/03 06:07:41;;;;;;;;;;;;;;;5.91;72.25;99165.66;5190294;28;19952;-83
2022/11/03 06:10:38;;;;;;;;;;;;;;;5.99;71.82;99158.06;5180732;28;20374;-84
2022/11/03 06:13:31;;;;;;;;;;;;;;;5.99;72.09;99157.25;5204186;28;20002;-81
2022/11/03 06:16:47;;;;;;;;;;;;;;;5.91;72.28;99149.03;5213402;28;19928;-86
2022/11/03 06:19:43;;;;;;;;;;;;;;;5.86;71.93;99154.63;5190455;28;19934;-85
2022/11/03 06:22:34;;;;;;;;;;;;;;;5.81;72.95;99149.69;5202171;28;19928;-85
2022/11/03 06:25:33;;;;;;;;;;;;;;;5.91;72.31;99143.78;5198444;28;20011;-85
2022/11/03 06:28:32;;;;;;;;;;;;;;;6.06;72.68;99133.00;5184070;28;19928;-85
2022/11/03 06:31:26;;;;;;;;;;;;;;;5.96;73.32;99124.09;5202744;28;19927;-83
2022/11/03 06:34:36;;;;;;;;;;;;;;;6.06;72.51;99116.34;5220390;28;19925;-85
2022/11/03 06:37:31;;;;;;;;;;;;;;;6.10;72.57;99118.66;5220987;28;19928;-83
2022/11/03 06:40:23;;;;;;;;;;;;;;;6.15;72.54;99120.13;5181743;28;20028;-84
2022/11/03 06:43:24;;;;;;;;;;;;;;;6.08;72.25;99125.81;5202746;28;19940;-87
2022/11/03 06:46:18;;;;;;;;;;;;;;;6.14;72.37;99132.44;5197516;28;19976;-85
2022/11/03 06:49:23;;;;;;;;;;;;;;;6.29;72.63;99128.69;5191062;28;19921;-82
2022/11/03 06:52:19;;;;;;;;;;;;;;;6.27;72.17;99127.97;5170723;28;19975;-82
2022/11/03 06:55:09;;;;;;;;;;;;;;;6.39;72.87;99136.75;5170435;28;19922;-82
2022/11/03 06:58:14;;;;;;;;;;;;;;;6.43;72.21;99132.94;5175883;28;19921;-84
2022/11/03 07:01:15;;;;;;;;;;;;;;;6.42;72.85;99139.13;5202675;28;20029;-84
2022/11/03 07:04:17;;;;;;;;;;;;;;;6.49;72.97;99128.97;5195560;28;19933;-84
2022/11/03 07:07:07;;;;;;;;;;;;;;;6.57;71.89;99124.00;5196765;28;20341;-84
2022/11/03 07:09:57;;;;;;;;;;;;;;;6.74;72.95;99128.00;5209521;28;19959;-83
2022/11/03 07:12:47;;;;;;;;;;;;;;;6.91;72.65;99121.44;5228735;28;19921;-84
2022/11/03 07:15:38;;;;;;;;;;;;;;;6.95;72.34;99114.97;5206371;28;19975;-82
2022/11/03 07:18:33;;;;;;;;;;;;;;;7.05;72.51;99114.16;5223582;28;19928;-81
2022/11/03 07:21:26;;;;;;;;;;;;;;;7.20;72.87;99106.00;5186239;28;19920;-81
2022/11/03 07:24:28;;;;;;;;;;;;;;;7.35;72.44;99110.09;5183686;28;20349;-82
2022/11/03 07:27:29;;;;;;;;;;;;;;;7.40;73.09;99089.44;5168680;28;20139;-82
2022/11/03 07:30:21;;;;;;;;;;;;;;;7.52;72.43;99072.66;5182483;28;20547;-82
2022/11/03 07:33:15;;;;;;;;;;;;;;;7.68;72.67;99088.09;5210169;28;19932;-80
2022/11/03 07:36:05;;;;;;;;;;;;;;;8.11;71.46;99075.84;5210353;28;20013;-81
2022/11/03 07:39:07;;;;;;;;;;;;;;;8.04;71.49;99077.31;5203784;28;20016;-82
2022/11/03 07:41:57;;;;;;;;;;;;;;;8.17;71.98;99075.34;5175723;28;20293;-80
2022/11/03 07:44:52;;;;;;;;;;;;;;;8.26;71.91;99069.28;5209460;28;20427;-83
2022/11/03 07:47:42;;;;;;;;;;;;;;;8.54;71.68;99069.66;5209609;28;19927;-81
2022/11/03 07:50:32;;;;;;;;;;;;;;;8.77;72.48;99070.34;5204595;28;20394;-83
2022/11/03 07:53:38;;;;;;;;;;;;;;;8.92;71.59;99067.25;5173317;28;20062;-83
2022/11/03 07:56:32;;;;;;;;;;;;;;;9.02;71.15;99063.81;5196219;28;19942;-84
2022/11/03 07:59:25;;;;;;;;;;;;;;;9.15;71.39;99059.16;5217140;28;19928;-85
2022/11/03 08:02:29;;;;;;;;;;;;;;;9.45;70.67;99055.63;5209974;28;19927;-83
2022/11/03 08:05:21;;;;;;;;;;;;;;;9.56;70.06;99047.56;5209929;28;20449;-83
2022/11/03 08:08:11;;;;;;;;;;;;;;;9.68;70.17;99050.94;5223807;28;19932;-84
2022/11/03 08:11:01;;;;;;;;;;;;;;;9.59;70.32;99035.88;5192622;28;20588;-82
2022/11/03 08:13:51;;;;;;;;;;;;;;;10.08;69.79;99045.53;5209862;28;19936;-85
2022/11/03 08:16:41;;;;;;;;;;;;;;;10.29;68.53;99040.09;5210231;28;19921;-83
2022/11/03 08:19:31;;;;;;;;;;;;;;;10.12;69.63;99030.19;5187609;28;19932;-84
2022/11/03 08:22:24;;;;;;;;;;;;;;;10.15;69.22;99019.31;5182669;28;20418;-83
2022/11/03 08:25:15;;;;;;;;;;;;;;;10.38;68.94;99009.28;5193943;28;19928;-84
2022/11/03 08:28:05;;;;;;;;;;;;;;;10.63;68.08;99009.63;5206417;28;19928;-84
2022/11/03 08:31:00;;;;;;;;;;;;;;;10.62;68.48;98997.38;5190798;28;19925;-83
2022/11/03 08:33:51;;;;;;;;;;;;;;;10.98;67.73;98991.22;5191673;28;19932;-84
2022/11/03 08:36:41;;;;;;;;;;;;;;;11.07;66.32;98989.53;5202421;28;19932;-83
2022/11/03 08:39:31;;;;;;;;;;;;;;;11.41;68.30;98988.91;5207560;28;19972;-84
2022/11/03 08:42:21;;;;;;;;;;;;;;;11.56;67.08;98981.28;5213202;28;20366;-83
2022/11/03 08:45:12;;;;;;;;;;;;;;;11.53;66.25;98974.44;5213408;28;19936;-83
2022/11/03 08:48:02;;;;;;;;;;;;;;;11.43;66.68;98969.19;5212203;28;20464;-82
2022/11/03 08:50:55;;;;;;;;;;;;;;;11.64;66.14;98963.59;5200214;28;19933;-83
2022/11/03 08:53:49;;;;;;;;;;;;;;;11.62;67.75;98962.94;5171710;28;20018;-83
2022/11/03 08:56:39;;;;;;;;;;;;;;;11.95;66.49;98956.13;5189362;28;19995;-84
2022/11/03 08:59:29;;;;;;;;;;;;;;;12.04;66.43;98957.00;5202816;28;19951;-83
2022/11/03 09:02:19;;;;;;;;;;;;;;;12.41;64.92;98958.59;5211279;28;19996;-83
2022/11/03 09:05:09;;;;;;;;;;;;;;;12.64;65.16;98959.72;5160184;28;19928;-83
2022/11/03 09:07:59;;;;;;;;;;;;;;;12.51;65.70;98954.00;5187831;28;20015;-83
2022/11/03 09:11:09;;;;;;;;;;;;;;;12.43;65.95;98946.00;5181511;28;19928;-83
2022/11/03 09:13:59;;;;;;;;;;;;;;;12.46;66.28;98948.34;5193397;28;20405;-83
2022/11/03 09:16:50;;;;;;;;;;;;;;;12.27;66.53;98951.19;5179644;28;19978;-83
2022/11/03 09:19:40;;;;;;;;;;;;;;;12.80;64.04;98940.38;5171803;28;19928;-84
2022/11/03 09:22:30;;;;;;;;;;;;;;;12.49;64.88;98933.91;5202451;28;20387;-85
2022/11/03 09:25:20;;;;;;;;;;;;;;;12.89;65.01;98935.94;5202288;28;19921;-84
2022/11/03 09:28:11;;;;;;;;;;;;;;;13.21;63.63;98929.03;5192331;28;19925;-84
2022/11/03 09:31:01;;;;;;;;;;;;;;;12.90;63.60;98926.94;5212537;28;19928;-84
2022/11/03 09:33:51;;;;;;;;;;;;;;;13.00;63.16;98916.16;5207345;28;19951;-82
2022/11/03 09:36:41;;;;;;;;;;;;;;;13.27;63.28;98923.91;5191774;28;19943;-84
2022/11/03 09:39:32;;;;;;;;;;;;;;;13.31;63.53;98914.63;5205253;28;20058;-83
2022/11/03 09:42:24;;;;;;;;;;;;;;;13.38;62.73;98914.81;5200499;28;19932;-84
2022/11/03 09:45:14;;;;;;;;;;;;;;;13.46;63.16;98909.50;5212338;28;19927;-83
2022/11/03 09:48:04;;;;;;;;;;;;;;;13.65;62.82;98908.34;5212526;28;19983;-83
2022/11/03 09:50:56;;;;;;;;;;;;;;;13.57;62.81;98905.66;5200272;28;19925;-83
2022/11/03 09:53:46;;;;;;;;;;;;;;;13.63;60.04;98910.34;5211953;28;19939;-83
2022/11/03 09:56:36;;;;;;;;;;;;;;;13.06;61.65;98892.41;5226858;28;19951;-83
2022/11/03 09:59:26;;;;;;;;;;;;;;;13.00;63.39;98887.72;5203626;28;19967;-82
2022/11/03 10:02:30;;;;;;;;;;;;;;;13.35;62.32;98877.84;5194361;28;20381;-83
2022/11/03 10:05:24;;;;;;;;;;;;;;;13.97;60.79;98870.22;5205051;28;20611;-82
2022/11/03 10:08:21;;;;;;;;;;;;;;;14.05;60.60;98878.19;5197486;28;19943;-83
2022/11/03 10:11:12;;;;;;;;;;;;;;;13.24;63.13;98870.13;5220854;28;19943;-83
2022/11/03 10:14:03;;;;;;;;;;;;;;;13.62;60.04;98864.22;5214049;28;19948;-83
2022/11/03 10:16:59;;;;;;;;;;;;;;;13.45;61.46;98864.38;5191322;28;19925;-82
2022/11/03 10:19:51;;;;;;;;;;;;;;;13.25;62.06;98859.38;5199965;28;19921;-83
2022/11/03 10:22:42;;;;;;;;;;;;;;;13.27;62.95;98857.34;5208535;28;19928;-83
2022/11/03 10:25:35;;;;;;;;;;;;;;;13.44;60.86;98852.88;5211184;28;19954;-82
2022/11/03 10:28:28;;;;;;;;;;;;;;;13.50;63.06;98857.53;5211574;28;19925;-83
2022/11/03 10:31:18;;;;;;;;;;;;;;;13.81;61.67;98855.06;5188291;28;19921;-82
2022/11/03 10:34:38;;;;;;;;;;;;;;;13.57;61.99;98841.72;5191098;28;20291;-82
2022/11/03 10:37:28;;;;;;;;;;;;;;;14.01;62.43;98836.88;5186823;28;20001;-83
2022/11/03 10:40:35;;;;;;;;;;;;;;;14.15;62.61;98824.69;5190884;28;20014;-84
2022/11/03 10:43:37;;;;;;;;;;;;;;;13.91;62.87;98817.56;5184189;28;19934;-83
2022/11/03 10:46:28;;;;;;;;;;;;;;;13.88;61.98;98817.91;5189453;28;20066;-82
2022/11/03 10:49:38;;;;;;;;;;;;;;;14.21;61.14;98810.66;5199575;28;20014;-82
2022/11/03 10:52:32;;;;;;;;;;;;;;;14.50;60.77;98802.09;5217237;28;19928;-82
2022/11/03 10:55:27;;;;;;;;;;;;;;;14.60;61.12;98801.84;5214031;28;19927;-83
2022/11/03 10:58:18;;;;;;;;;;;;;;;14.41;61.28;98787.09;5223986;28;19940;-82
2022/11/03 11:01:09;;;;;;;;;;;;;;;14.29;60.70;98791.13;5195667;28;19972;-82
2022/11/03 11:04:00;;;;;;;;;;;;;;;14.38;61.28;98787.44;5204420;28;19951;-83
2022/11/03 11:06:51;;;;;;;;;;;;;;;14.31;61.24;98786.47;5191112;28;20571;-83
2022/11/03 11:09:41;;;;;;;;;;;;;;;14.26;60.39;98770.97;5191771;28;19928;-83
2022/11/03 11:12:31;;;;;;;;;;;;;;;14.26;61.36;98764.81;5201323;28;19927;-83
2022/11/03 11:15:53;;;;;;;;;;;;;;;14.28;61.12;98755.63;5209805;28;19928;-83
2022/11/03 11:18:46;;;;;;;;;;;;;;;14.24;61.92;98750.81;5193588;28;19937;-83
2022/11/03 11:21:39;;;;;;;;;;;;;;;14.12;61.75;98729.03;5199589;28;20494;-82
2022/11/03 11:24:41;;;;;;;;;;;;;;;14.16;62.12;98726.84;5209757;28;19928;-84
2022/11/03 11:27:31;;;;;;;;;;;;;;;14.09;62.23;98719.53;5209349;28;20325;-84
2022/11/03 11:30:21;;;;;;;;;;;;;;;14.30;61.05;98718.09;5187872;28;19965;-84
2022/11/03 11:33:13;;;;;;;;;;;;;;;14.42;60.60;98722.06;5208691;28;20011;-82
2022/11/03 11:36:04;;;;;;;;;;;;;;;14.65;60.08;98721.28;5195182;28;20014;-83
2022/11/03 11:38:54;;;;;;;;;;;;;;;14.72;58.95;98715.06;5190280;28;19921;-83
2022/11/03 11:42:04;;;;;;;;;;;;;;;14.78;59.26;98708.19;5222795;28;19932;-82
2022/11/03 11:44:56;;;;;;;;;;;;;;;14.81;59.37;98715.84;5216630;28;19950;-83
2022/11/03 11:47:50;;;;;;;;;;;;;;;14.90;58.24;98700.59;5185126;28;19928;-83
2022/11/03 11:50:40;;;;;;;;;;;;;;;14.62;59.97;98693.13;5193604;28;20026;-84
2022/11/03 11:53:41;;;;;;;;;;;;;;;14.84;60.08;98685.31;5189969;28;19921;-85
2022/11/03 11:56:31;;;;;;;;;;;;;;;15.04;59.25;98681.13;5178931;28;19928;-83
2022/11/03 11:59:22;;;;;;;;;;;;;;;14.46;60.19;98669.19;5202287;28;20035;-83
2022/11/03 12:02:17;;;;;;;;;;;;;;;14.69;60.24;98664.72;5193119;28;19936;-82
2022/11/03 12:05:17;;;;;;;;;;;;;;;14.55;60.64;98663.66;5193365;28;19945;-84
2022/11/03 12:08:24;;;;;;;;;;;;;;;14.48;60.13;98643.16;5179420;28;19928;-82
2022/11/03 12:11:34;;;;;;;;;;;;;;;14.82;59.78;98648.09;5185066;28;20437;-80
2022/11/03 12:14:31;;;;;;;;;;;;;;;14.42;59.68;98644.69;5174618;28;19932;-81
2022/11/03 12:17:22;;;;;;;;;;;;;;;14.10;60.98;98640.38;5174814;28;20059;-81
2022/11/03 12:20:30;;;;;;;;;;;;;;;13.91;61.38;98624.81;5209728;28;19935;-81
2022/11/03 12:23:37;;;;;;;;;;;;;;;13.90;60.78;98628.50;5228239;28;20450;-82
2022/11/03 12:26:26;;;;;;;;;;;;;;;14.13;60.94;98628.53;5215327;28;20030;-82
2022/11/03 12:29:17;;;;;;;;;;;;;;;14.15;60.15;98623.88;5202876;28;19929;-82
2022/11/03 12:32:07;;;;;;;;;;;;;;;14.13;60.22;98612.56;5195966;28;20410;-81
2022/11/03 12:35:09;;;;;;;;;;;;;;;14.29;60.16;98618.59;5186353;28;19928;-81
2022/11/03 12:37:59;;;;;;;;;;;;;;;14.22;60.18;98603.50;5192630;28;19932;-83
2022/11/03 12:40:49;;;;;;;;;;;;;;;14.27;60.65;98588.63;5195762;28;19963;-82
2022/11/03 12:43:39;;;;;;;;;;;;;;;13.98;61.03;98583.16;5192260;28;19967;-82
2022/11/03 12:46:30;;;;;;;;;;;;;;;14.09;60.60;98574.75;5191586;28;20033;-81
2022/11/03 12:49:20;;;;;;;;;;;;;;;13.55;60.72;98516.94;5208788;28;19955;-80
2022/11/03 12:52:10;;;;;;;;;;;;;;;13.96;60.31;98566.50;5214804;28;19921;-81
2022/11/03 12:55:00;;;;;;;;;;;;;;;13.82;61.33;98568.09;5200908;28;19927;-83
2022/11/03 12:57:50;;;;;;;;;;;;;;;14.19;60.19;98563.84;5183574;28;20510;-82
2022/11/03 13:00:40;;;;;;;;;;;;;;;14.00;59.92;98560.63;5190020;28;19921;-82
2022/11/03 13:03:31;;;;;;;;;;;;;;;14.45;58.82;98551.00;5188671;28;19929;-82
2022/11/03 13:06:21;;;;;;;;;;;;;;;14.42;58.75;98554.00;5188226;28;19929;-81
2022/11/03 13:09:11;;;;;;;;;;;;;;;14.83;57.18;98545.66;5168774;28;19944;-81
2022/11/03 13:15:12;;;;;;;;;;;;;;;14.52;59.36;98530.59;5196850;28;19937;-81
2022/11/03 13:18:04;;;;;;;;;;;;;;;14.71;59.48;98515.94;5229444;28;19943;-80
2022/11/03 13:21:03;;;;;;;;;;;;;;;14.71;59.07;98515.13;5211881;28;20004;-80
2022/11/03 13:23:55;;;;;;;;;;;;;;;14.57;60.32;98509.56;5221660;28;19924;-82
2022/11/03 13:26:45;;;;;;;;;;;;;;;14.52;59.77;98490.59;5214467;28;19920;-81
2022/11/03 13:29:35;;;;;;;;;;;;;;;14.59;60.44;98479.19;5228146;28;20003;-82
2022/11/03 13:32:25;;;;;;;;;;;;;;;14.44;60.22;98476.50;5226041;28;19928;-81
2022/11/03 13:35:16;;;;;;;;;;;;;;;14.77;58.98;98471.69;5210132;28;20752;-81
2022/11/03 13:38:06;;;;;;;;;;;;;;;14.84;59.31;98466.44;5185831;28;19927;-82
2022/11/03 13:40:56;;;;;;;;;;;;;;;15.01;59.35;98466.06;5209384;28;20021;-82
2022/11/03 13:43:52;;;;;;;;;;;;;;;15.06;59.19;98462.00;5196044;28;20509;-81
2022/11/03 13:46:42;;;;;;;;;;;;;;;15.06;59.13;98457.47;5207415;28;19952;-82
2022/11/03 13:49:32;;;;;;;;;;;;;;;15.04;59.84;98441.66;5192111;28;19928;-81
2022/11/03 13:52:42;;;;;;;;;;;;;;;15.04;59.24;98436.31;5216172;28;19931;-81
2022/11/03 13:55:33;;;;;;;;;;;;;;;15.01;59.92;98427.88;5215622;28;19928;-82
2022/11/03 13:58:30;;;;;;;;;;;;;;;14.92;60.02;98420.97;5192444;28;19928;-83
2022/11/03 14:01:40;;;;;;;;;;;;;;;15.09;60.23;98410.91;5194424;28;20387;-83
2022/11/03 14:04:30;;;;;;;;;;;;;;;15.06;60.20;98406.75;5208792;28;19927;-82
2022/11/03 14:07:36;;;;;;;;;;;;;;;15.00;60.53;98404.84;5178723;28;19947;-82
2022/11/03 14:10:26;;;;;;;;;;;;;;;14.97;60.99;98397.22;5207043;28;19928;-81
2022/11/03 14:13:16;;;;;;;;;;;;;;;14.96;61.09;98393.69;5207272;28;20082;-82
2022/11/03 14:16:06;;;;;;;;;;;;;;;14.99;61.05;98398.66;5199266;28;19929;-82
2022/11/03 14:18:57;;;;;;;;;;;;;;;14.85;61.98;98388.84;5190167;28;20327;-83
2022/11/03 14:21:47;;;;;;;;;;;;;;;14.81;61.90;98379.56;5219340;28;19932;-83
2022/11/03 14:24:36;;;;;;;;;;;;;;;14.86;61.80;98379.81;5212952;28;19931;-82
2022/11/03 14:27:26;;;;;;;;;;;;;;;14.88;60.98;98366.28;5212838;28;19932;-81
2022/11/03 14:30:17;;;;;;;;;;;;;;;14.84;61.20;98371.19;5212550;28;20399;-82
2022/11/03 14:33:07;;;;;;;;;;;;;;;14.74;61.98;98360.78;5204581;28;20406;-82
2022/11/03 14:35:58;;;;;;;;;;;;;;;14.84;61.50;98359.69;5205487;28;20743;-82
2022/11/03 14:38:48;;;;;;;;;;;;;;;14.53;62.43;98344.69;5191850;28;19928;-83
2022/11/03 14:44:48;;;;;;;;;;;;;;;14.40;62.89;98329.31;5192744;28;19944;-82
2022/11/03 14:47:38;;;;;;;;;;;;;;;14.39;62.57;98325.00;5207703;28;20092;-83
2022/11/03 14:50:28;;;;;;;;;;;;;;;14.31;62.96;98325.09;5214301;28;19928;-82
2022/11/03 14:53:18;;;;;;;;;;;;;;;14.06;63.92;98305.84;5211143;28;20436;-82
2022/11/03 14:56:08;;;;;;;;;;;;;;;14.15;64.00;98310.09;5225806;28;19943;-82
2022/11/03 14:58:58;;;;;;;;;;;;;;;14.33;62.32;98307.88;5203802;28;19921;-80
2022/11/03 15:01:48;;;;;;;;;;;;;;;14.27;62.89;98294.47;5197204;28;19976;-82
2022/11/03 15:04:38;;;;;;;;;;;;;;;14.50;61.86;98292.56;5176211;28;20015;-81
2022/11/03 15:07:28;;;;;;;;;;;;;;;14.49;62.15;98290.84;5189108;28;19928;-80
2022/11/03 15:10:19;;;;;;;;;;;;;;;14.52;62.16;98287.03;5189969;28;20059;-80
2022/11/03 15:13:09;;;;;;;;;;;;;;;14.55;61.85;98290.16;5191806;28;19947;-80
2022/11/03 15:15:59;;;;;;;;;;;;;;;14.54;61.30;98275.16;5190213;28;19928;-80
2022/11/03 15:18:50;;;;;;;;;;;;;;;14.56;61.88;98269.63;5189781;28;19928;-82
2022/11/03 15:21:40;;;;;;;;;;;;;;;14.48;61.55;98256.38;5189978;28;19971;-82
2022/11/03 15:24:29;;;;;;;;;;;;;;;14.53;61.25;98249.47;5190619;28;19928;-82
2022/11/03 15:27:39;;;;;;;;;;;;;;;13.89;63.65;98249.25;5191521;28;19936;-84
2022/11/03 15:30:29;;;;;;;;;;;;;;;13.87;63.64;98240.59;5188341;28;19921;-81